sensor_id;sensor_type;location;lat;lon;timestamp;temperature;humidity
67273;DHT22;54190;49.770;9.250;2023-07-31T00:00:27;17.10;99.90
67273;DHT22;54190;49.770;9.250;2023-07-31T00:02:54;17.10;99.90
67273;DHT22;54190;49.770;9.250;2023-07-31T00:05:20;17.00;99.90
67273;DHT22;54190;49.770;9.250;2023-07-31T00:07:46;17.00;99.90
67273;DHT22;54190;49.770;9.250;2023-07-31T00:10:12;17.00;99.90
67273;DHT22;54190;49.770;9.250;2023-07-31T00:12:42;17.00;99.90
67273;DHT22;54190;49.770;9.250;2023-07-31T00:15:08;17.00;99.90
67273;DHT22;54190;49.770;9.250;2023-07-31T00:17:34;17.00;99.90
67273;DHT22;54190;49.770;9.250;2023-07-31T00:20:00;17.00;99.90
67273;DHT22;54190;49.770;9.250;2023-07-31T00:22:25;17.00;99.90
67273;DHT22;54190;49.770;9.250;2023-07-31T00:24:51;17.00;99.90
67273;DHT22;54190;49.770;9.250;2023-07-31T00:27:17;17.10;99.90
67273;DHT22;54190;49.770;9.250;2023-07-31T00:29:43;17.10;99.90
67273;DHT22;54190;49.770;9.250;2023-07-31T00:32:08;17.10;99.90
67273;DHT22;54190;49.770;9.250;2023-07-31T00:34:36;17.20;99.90
67273;DHT22;54190;49.770;9.250;2023-07-31T00:37:02;17.20;99.90
67273;DHT22;54190;49.770;9.250;2023-07-31T00:39:29;17.30;99.90
67273;DHT22;54190;49.770;9.250;2023-07-31T00:41:55;17.30;99.90
67273;DHT22;54190;49.770;9.250;2023-07-31T00:44:20;17.40;99.90
67273;DHT22;54190;49.770;9.250;2023-07-31T00:46:46;17.40;99.90
67273;DHT22;54190;49.770;9.250;2023-07-31T00:49:12;17.40;99.90
67273;DHT22;54190;49.770;9.250;2023-07-31T00:51:38;17.40;99.90
67273;DHT22;54190;49.770;9.250;2023-07-31T00:54:03;17.40;99.90
67273;DHT22;54190;49.770;9.250;2023-07-31T00:56:29;17.50;99.90
67273;DHT22;54190;49.770;9.250;2023-07-31T00:58:55;17.50;99.90
67273;DHT22;54190;49.770;9.250;2023-07-31T01:01:21;17.60;99.90
67273;DHT22;54190;49.770;9.250;2023-07-31T01:03:48;17.60;99.90
67273;DHT22;54190;49.770;9.250;2023-07-31T01:06:48;17.60;99.90
67273;DHT22;54190;49.770;9.250;2023-07-31T01:12:00;17.60;99.90
67273;DHT22;54190;49.770;9.250;2023-07-31T01:14:27;17.70;99.90
67273;DHT22;54190;49.770;9.250;2023-07-31T01:16:52;17.70;99.90
67273;DHT22;54190;49.770;9.250;2023-07-31T01:19:24;17.70;99.90
67273;DHT22;54190;49.770;9.250;2023-07-31T01:24:28;17.80;99.90
67273;DHT22;54190;49.770;9.250;2023-07-31T01:26:58;17.80;99.70
67273;DHT22;54190;49.770;9.250;2023-07-31T01:32:07;17.90;99.40
67273;DHT22;54190;49.770;9.250;2023-07-31T01:34:35;18.00;99.30
67273;DHT22;54190;49.770;9.250;2023-07-31T01:37:02;18.00;99.40
67273;DHT22;54190;49.770;9.250;2023-07-31T01:39:28;18.00;99.40
67273;DHT22;54190;49.770;9.250;2023-07-31T01:41:54;18.10;99.30
67273;DHT22;54190;49.770;9.250;2023-07-31T01:44:20;18.10;99.40
67273;DHT22;54190;49.770;9.250;2023-07-31T01:46:45;18.00;99.60
67273;DHT22;54190;49.770;9.250;2023-07-31T01:49:11;18.00;99.60
67273;DHT22;54190;49.770;9.250;2023-07-31T01:51:37;18.00;99.50
67273;DHT22;54190;49.770;9.250;2023-07-31T01:54:03;18.00;99.40
67273;DHT22;54190;49.770;9.250;2023-07-31T01:56:28;18.10;99.50
67273;DHT22;54190;49.770;9.250;2023-07-31T01:58:54;18.10;99.30
67273;DHT22;54190;49.770;9.250;2023-07-31T02:01:20;18.10;99.40
67273;DHT22;54190;49.770;9.250;2023-07-31T02:03:45;18.10;99.50
67273;DHT22;54190;49.770;9.250;2023-07-31T02:06:11;18.10;99.50
67273;DHT22;54190;49.770;9.250;2023-07-31T02:08:37;18.10;99.20
67273;DHT22;54190;49.770;9.250;2023-07-31T02:11:03;18.10;99.00
67273;DHT22;54190;49.770;9.250;2023-07-31T02:13:30;18.10;99.10
67273;DHT22;54190;49.770;9.250;2023-07-31T02:15:56;18.10;99.40
67273;DHT22;54190;49.770;9.250;2023-07-31T02:18:22;18.10;99.10
67273;DHT22;54190;49.770;9.250;2023-07-31T02:20:51;18.10;99.20
67273;DHT22;54190;49.770;9.250;2023-07-31T02:23:17;18.10;99.40
67273;DHT22;54190;49.770;9.250;2023-07-31T02:25:44;18.10;99.40
67273;DHT22;54190;49.770;9.250;2023-07-31T02:28:10;18.10;99.70
67273;DHT22;54190;49.770;9.250;2023-07-31T02:30:35;18.10;99.60
67273;DHT22;54190;49.770;9.250;2023-07-31T02:33:01;18.10;99.50
67273;DHT22;54190;49.770;9.250;2023-07-31T02:35:26;18.10;99.60
67273;DHT22;54190;49.770;9.250;2023-07-31T02:37:52;18.10;99.60
67273;DHT22;54190;49.770;9.250;2023-07-31T02:40:18;18.10;99.20
67273;DHT22;54190;49.770;9.250;2023-07-31T02:42:44;18.20;99.40
67273;DHT22;54190;49.770;9.250;2023-07-31T02:45:11;18.10;99.40
67273;DHT22;54190;49.770;9.250;2023-07-31T02:47:37;18.10;99.40
67273;DHT22;54190;49.770;9.250;2023-07-31T02:50:03;18.10;99.20
67273;DHT22;54190;49.770;9.250;2023-07-31T02:52:29;18.10;99.40
67273;DHT22;54190;49.770;9.250;2023-07-31T02:54:55;18.10;99.50
67273;DHT22;54190;49.770;9.250;2023-07-31T02:57:21;18.10;99.40
67273;DHT22;54190;49.770;9.250;2023-07-31T02:59:47;18.10;99.50
67273;DHT22;54190;49.770;9.250;2023-07-31T03:02:12;18.10;99.60
67273;DHT22;54190;49.770;9.250;2023-07-31T03:04:38;18.10;99.80
67273;DHT22;54190;49.770;9.250;2023-07-31T03:07:04;18.10;99.60
67273;DHT22;54190;49.770;9.250;2023-07-31T03:09:30;18.00;99.90
67273;DHT22;54190;49.770;9.250;2023-07-31T03:11:56;18.10;99.80
67273;DHT22;54190;49.770;9.250;2023-07-31T03:14:21;18.00;99.70
67273;DHT22;54190;49.770;9.250;2023-07-31T03:16:48;18.00;99.80
67273;DHT22;54190;49.770;9.250;2023-07-31T03:19:13;18.00;99.90
67273;DHT22;54190;49.770;9.250;2023-07-31T03:21:39;18.00;99.90
67273;DHT22;54190;49.770;9.250;2023-07-31T03:24:05;18.00;99.90
67273;DHT22;54190;49.770;9.250;2023-07-31T03:26:33;18.00;99.90
67273;DHT22;54190;49.770;9.250;2023-07-31T03:28:59;18.00;99.90
67273;DHT22;54190;49.770;9.250;2023-07-31T03:31:25;18.00;99.90
67273;DHT22;54190;49.770;9.250;2023-07-31T03:33:51;18.00;99.80
67273;DHT22;54190;49.770;9.250;2023-07-31T03:36:17;18.00;99.90
67273;DHT22;54190;49.770;9.250;2023-07-31T03:38:43;17.90;99.90
67273;DHT22;54190;49.770;9.250;2023-07-31T03:41:08;17.90;99.90
67273;DHT22;54190;49.770;9.250;2023-07-31T03:43:35;17.90;99.90
67273;DHT22;54190;49.770;9.250;2023-07-31T03:46:01;17.90;99.90
67273;DHT22;54190;49.770;9.250;2023-07-31T03:48:28;17.90;99.90
67273;DHT22;54190;49.770;9.250;2023-07-31T03:50:54;17.90;99.90
67273;DHT22;54190;49.770;9.250;2023-07-31T03:53:21;17.90;99.90
67273;DHT22;54190;49.770;9.250;2023-07-31T03:55:47;17.90;99.90
67273;DHT22;54190;49.770;9.250;2023-07-31T03:58:12;17.90;99.90
67273;DHT22;54190;49.770;9.250;2023-07-31T04:00:40;17.90;99.90
67273;DHT22;54190;49.770;9.250;2023-07-31T04:03:05;17.90;99.90
67273;DHT22;54190;49.770;9.250;2023-07-31T04:05:32;17.90;99.90
67273;DHT22;54190;49.770;9.250;2023-07-31T04:07:58;17.90;99.90
67273;DHT22;54190;49.770;9.250;2023-07-31T04:10:24;17.80;99.90
67273;DHT22;54190;49.770;9.250;2023-07-31T04:12:49;17.80;99.90
67273;DHT22;54190;49.770;9.250;2023-07-31T04:15:15;17.90;99.90
67273;DHT22;54190;49.770;9.250;2023-07-31T04:17:40;17.80;99.90
67273;DHT22;54190;49.770;9.250;2023-07-31T04:20:06;17.80;99.90
67273;DHT22;54190;49.770;9.250;2023-07-31T04:22:32;17.80;99.90
67273;DHT22;54190;49.770;9.250;2023-07-31T04:24:58;17.70;99.90
67273;DHT22;54190;49.770;9.250;2023-07-31T04:27:24;17.70;99.90
67273;DHT22;54190;49.770;9.250;2023-07-31T04:29:49;17.60;99.90
67273;DHT22;54190;49.770;9.250;2023-07-31T04:32:16;17.60;99.90
67273;DHT22;54190;49.770;9.250;2023-07-31T04:34:42;17.60;99.90
67273;DHT22;54190;49.770;9.250;2023-07-31T04:37:08;17.60;99.90
67273;DHT22;54190;49.770;9.250;2023-07-31T04:39:33;17.60;99.90
67273;DHT22;54190;49.770;9.250;2023-07-31T04:41:59;17.60;99.90
67273;DHT22;54190;49.770;9.250;2023-07-31T04:44:25;17.60;99.90
67273;DHT22;54190;49.770;9.250;2023-07-31T04:46:50;17.50;99.90
67273;DHT22;54190;49.770;9.250;2023-07-31T04:49:16;17.50;99.90
67273;DHT22;54190;49.770;9.250;2023-07-31T04:51:41;17.50;99.90
67273;DHT22;54190;49.770;9.250;2023-07-31T04:54:07;17.50;99.90
67273;DHT22;54190;49.770;9.250;2023-07-31T04:56:33;17.60;99.90
67273;DHT22;54190;49.770;9.250;2023-07-31T04:58:58;17.60;99.90
67273;DHT22;54190;49.770;9.250;2023-07-31T05:01:24;17.50;99.90
67273;DHT22;54190;49.770;9.250;2023-07-31T05:03:50;17.50;99.90
67273;DHT22;54190;49.770;9.250;2023-07-31T05:06:16;17.50;99.90
67273;DHT22;54190;49.770;9.250;2023-07-31T05:08:41;17.50;99.90
67273;DHT22;54190;49.770;9.250;2023-07-31T05:11:07;17.60;99.90
67273;DHT22;54190;49.770;9.250;2023-07-31T05:13:32;17.60;99.90
67273;DHT22;54190;49.770;9.250;2023-07-31T05:15:58;17.60;99.90
67273;DHT22;54190;49.770;9.250;2023-07-31T05:18:24;17.60;99.90
67273;DHT22;54190;49.770;9.250;2023-07-31T05:20:49;17.60;99.90
67273;DHT22;54190;49.770;9.250;2023-07-31T05:23:15;17.60;99.90
67273;DHT22;54190;49.770;9.250;2023-07-31T05:25:41;17.60;99.90
67273;DHT22;54190;49.770;9.250;2023-07-31T05:28:06;17.60;99.90
67273;DHT22;54190;49.770;9.250;2023-07-31T05:30:32;17.60;99.90
67273;DHT22;54190;49.770;9.250;2023-07-31T05:32:57;17.60;99.90
67273;DHT22;54190;49.770;9.250;2023-07-31T05:35:23;17.60;99.90
67273;DHT22;54190;49.770;9.250;2023-07-31T05:37:49;17.60;99.90
67273;DHT22;54190;49.770;9.250;2023-07-31T05:40:15;17.60;99.90
67273;DHT22;54190;49.770;9.250;2023-07-31T05:42:40;17.60;99.90
67273;DHT22;54190;49.770;9.250;2023-07-31T05:45:07;17.60;99.90
67273;DHT22;54190;49.770;9.250;2023-07-31T05:47:33;17.70;99.90
67273;DHT22;54190;49.770;9.250;2023-07-31T05:49:58;17.70;99.90
67273;DHT22;54190;49.770;9.250;2023-07-31T05:52:24;17.70;99.90
67273;DHT22;54190;49.770;9.250;2023-07-31T05:54:50;17.70;99.90
67273;DHT22;54190;49.770;9.250;2023-07-31T05:57:16;17.80;99.90
67273;DHT22;54190;49.770;9.250;2023-07-31T05:59:41;17.80;99.90
67273;DHT22;54190;49.770;9.250;2023-07-31T06:02:07;17.80;99.90
67273;DHT22;54190;49.770;9.250;2023-07-31T06:04:33;17.80;99.90
67273;DHT22;54190;49.770;9.250;2023-07-31T06:06:58;17.80;99.90
67273;DHT22;54190;49.770;9.250;2023-07-31T06:09:24;17.80;99.90
67273;DHT22;54190;49.770;9.250;2023-07-31T06:11:51;17.80;99.90
67273;DHT22;54190;49.770;9.250;2023-07-31T06:14:17;17.80;99.90
67273;DHT22;54190;49.770;9.250;2023-07-31T06:16:44;17.90;99.90
67273;DHT22;54190;49.770;9.250;2023-07-31T06:19:10;17.90;99.90
67273;DHT22;54190;49.770;9.250;2023-07-31T06:21:36;17.90;99.90
67273;DHT22;54190;49.770;9.250;2023-07-31T06:24:05;17.90;99.90
67273;DHT22;54190;49.770;9.250;2023-07-31T06:26:31;17.90;99.90
67273;DHT22;54190;49.770;9.250;2023-07-31T06:28:57;17.90;99.90
67273;DHT22;54190;49.770;9.250;2023-07-31T06:31:22;17.90;99.90
67273;DHT22;54190;49.770;9.250;2023-07-31T06:33:52;17.90;99.90
67273;DHT22;54190;49.770;9.250;2023-07-31T06:36:18;18.00;99.90
67273;DHT22;54190;49.770;9.250;2023-07-31T06:38:43;18.00;99.90
67273;DHT22;54190;49.770;9.250;2023-07-31T06:41:09;18.00;99.90
67273;DHT22;54190;49.770;9.250;2023-07-31T06:43:36;18.00;99.90
67273;DHT22;54190;49.770;9.250;2023-07-31T06:46:05;18.00;99.90
67273;DHT22;54190;49.770;9.250;2023-07-31T06:48:32;18.10;99.90
67273;DHT22;54190;49.770;9.250;2023-07-31T06:50:58;18.10;99.90
67273;DHT22;54190;49.770;9.250;2023-07-31T06:53:24;18.10;99.90
67273;DHT22;54190;49.770;9.250;2023-07-31T06:55:49;18.10;99.90
67273;DHT22;54190;49.770;9.250;2023-07-31T06:58:17;18.10;99.90
67273;DHT22;54190;49.770;9.250;2023-07-31T07:00:42;18.20;99.90
67273;DHT22;54190;49.770;9.250;2023-07-31T07:03:08;18.20;99.90
67273;DHT22;54190;49.770;9.250;2023-07-31T07:05:34;18.20;99.90
67273;DHT22;54190;49.770;9.250;2023-07-31T07:08:00;18.20;99.90
67273;DHT22;54190;49.770;9.250;2023-07-31T07:10:25;18.30;99.90
67273;DHT22;54190;49.770;9.250;2023-07-31T07:12:51;18.30;99.90
67273;DHT22;54190;49.770;9.250;2023-07-31T07:15:17;18.40;99.90
67273;DHT22;54190;49.770;9.250;2023-07-31T07:17:42;18.40;99.90
67273;DHT22;54190;49.770;9.250;2023-07-31T07:20:08;18.50;99.90
67273;DHT22;54190;49.770;9.250;2023-07-31T07:22:34;18.50;99.90
67273;DHT22;54190;49.770;9.250;2023-07-31T07:24:59;18.60;99.90
67273;DHT22;54190;49.770;9.250;2023-07-31T07:27:25;18.60;99.90
67273;DHT22;54190;49.770;9.250;2023-07-31T07:29:51;18.70;99.90
67273;DHT22;54190;49.770;9.250;2023-07-31T07:32:18;18.70;99.90
67273;DHT22;54190;49.770;9.250;2023-07-31T07:34:44;18.70;99.90
67273;DHT22;54190;49.770;9.250;2023-07-31T07:37:09;18.70;99.90
67273;DHT22;54190;49.770;9.250;2023-07-31T07:39:35;18.70;99.90
67273;DHT22;54190;49.770;9.250;2023-07-31T07:42:01;18.70;99.90
67273;DHT22;54190;49.770;9.250;2023-07-31T07:44:26;18.80;99.90
67273;DHT22;54190;49.770;9.250;2023-07-31T07:46:52;18.80;99.90
67273;DHT22;54190;49.770;9.250;2023-07-31T07:49:18;18.80;99.90
67273;DHT22;54190;49.770;9.250;2023-07-31T07:51:43;18.80;99.90
67273;DHT22;54190;49.770;9.250;2023-07-31T07:54:09;18.80;99.90
67273;DHT22;54190;49.770;9.250;2023-07-31T07:56:35;18.90;99.90
67273;DHT22;54190;49.770;9.250;2023-07-31T07:59:01;18.90;99.90
67273;DHT22;54190;49.770;9.250;2023-07-31T08:01:27;19.00;99.90
67273;DHT22;54190;49.770;9.250;2023-07-31T08:03:53;19.10;99.90
67273;DHT22;54190;49.770;9.250;2023-07-31T08:06:18;19.20;99.90
67273;DHT22;54190;49.770;9.250;2023-07-31T08:08:44;19.30;99.90
67273;DHT22;54190;49.770;9.250;2023-07-31T08:11:10;19.40;99.90
67273;DHT22;54190;49.770;9.250;2023-07-31T08:13:35;19.50;99.90
67273;DHT22;54190;49.770;9.250;2023-07-31T08:16:03;19.50;99.90
67273;DHT22;54190;49.770;9.250;2023-07-31T08:18:31;19.50;99.90
67273;DHT22;54190;49.770;9.250;2023-07-31T08:20:57;19.60;99.90
67273;DHT22;54190;49.770;9.250;2023-07-31T08:23:22;19.70;99.90
67273;DHT22;54190;49.770;9.250;2023-07-31T08:25:48;19.70;99.90
67273;DHT22;54190;49.770;9.250;2023-07-31T08:28:15;19.70;99.90
67273;DHT22;54190;49.770;9.250;2023-07-31T08:30:41;19.80;99.90
67273;DHT22;54190;49.770;9.250;2023-07-31T08:33:07;19.80;99.90
67273;DHT22;54190;49.770;9.250;2023-07-31T08:35:33;19.90;99.90
67273;DHT22;54190;49.770;9.250;2023-07-31T08:37:59;20.00;99.90
67273;DHT22;54190;49.770;9.250;2023-07-31T08:40:25;20.10;99.90
67273;DHT22;54190;49.770;9.250;2023-07-31T08:42:54;20.10;99.90
67273;DHT22;54190;49.770;9.250;2023-07-31T08:45:22;20.20;99.90
67273;DHT22;54190;49.770;9.250;2023-07-31T08:47:50;20.10;99.90
67273;DHT22;54190;49.770;9.250;2023-07-31T08:50:18;20.10;99.90
67273;DHT22;54190;49.770;9.250;2023-07-31T08:52:46;20.10;99.90
67273;DHT22;54190;49.770;9.250;2023-07-31T08:55:11;20.20;99.90
67273;DHT22;54190;49.770;9.250;2023-07-31T08:57:38;20.20;99.90
67273;DHT22;54190;49.770;9.250;2023-07-31T09:00:06;20.30;99.90
67273;DHT22;54190;49.770;9.250;2023-07-31T09:02:43;20.40;99.90
67273;DHT22;54190;49.770;9.250;2023-07-31T09:05:11;20.50;99.90
67273;DHT22;54190;49.770;9.250;2023-07-31T09:07:37;20.80;99.90
67273;DHT22;54190;49.770;9.250;2023-07-31T09:10:03;21.00;99.50
67273;DHT22;54190;49.770;9.250;2023-07-31T09:12:30;21.10;99.10
67273;DHT22;54190;49.770;9.250;2023-07-31T09:14:59;21.20;99.10
67273;DHT22;54190;49.770;9.250;2023-07-31T09:17:36;21.20;99.40
67273;DHT22;54190;49.770;9.250;2023-07-31T09:20:19;21.20;98.70
67273;DHT22;54190;49.770;9.250;2023-07-31T09:22:46;21.20;98.80
67273;DHT22;54190;49.770;9.250;2023-07-31T09:25:25;21.30;98.60
67273;DHT22;54190;49.770;9.250;2023-07-31T09:27:56;21.30;98.40
67273;DHT22;54190;49.770;9.250;2023-07-31T09:30:22;21.40;99.60
67273;DHT22;54190;49.770;9.250;2023-07-31T09:32:49;21.40;98.90
67273;DHT22;54190;49.770;9.250;2023-07-31T09:37:57;21.40;98.00
67273;DHT22;54190;49.770;9.250;2023-07-31T09:40:27;21.40;97.90
67273;DHT22;54190;49.770;9.250;2023-07-31T09:43:01;21.40;98.40
67273;DHT22;54190;49.770;9.250;2023-07-31T09:45:28;21.40;98.00
67273;DHT22;54190;49.770;9.250;2023-07-31T09:47:54;21.40;97.50
67273;DHT22;54190;49.770;9.250;2023-07-31T09:50:22;21.40;98.40
67273;DHT22;54190;49.770;9.250;2023-07-31T09:52:48;21.50;99.10
67273;DHT22;54190;49.770;9.250;2023-07-31T09:55:14;21.60;99.20
67273;DHT22;54190;49.770;9.250;2023-07-31T09:57:41;21.70;98.10
67273;DHT22;54190;49.770;9.250;2023-07-31T10:00:11;21.60;97.70
67273;DHT22;54190;49.770;9.250;2023-07-31T10:02:38;21.50;97.90
67273;DHT22;54190;49.770;9.250;2023-07-31T10:05:05;21.50;97.90
67273;DHT22;54190;49.770;9.250;2023-07-31T10:07:36;21.50;97.60
67273;DHT22;54190;49.770;9.250;2023-07-31T10:10:04;21.40;97.90
67273;DHT22;54190;49.770;9.250;2023-07-31T10:12:33;21.30;97.70
67273;DHT22;54190;49.770;9.250;2023-07-31T10:15:00;21.20;97.50
67273;DHT22;54190;49.770;9.250;2023-07-31T10:17:26;21.20;97.70
67273;DHT22;54190;49.770;9.250;2023-07-31T10:19:53;21.10;97.60
67273;DHT22;54190;49.770;9.250;2023-07-31T10:22:21;21.10;97.70
67273;DHT22;54190;49.770;9.250;2023-07-31T10:24:48;21.10;97.70
67273;DHT22;54190;49.770;9.250;2023-07-31T10:27:15;21.10;97.70
67273;DHT22;54190;49.770;9.250;2023-07-31T10:29:43;21.20;98.00
67273;DHT22;54190;49.770;9.250;2023-07-31T10:32:13;21.10;97.80
67273;DHT22;54190;49.770;9.250;2023-07-31T10:34:40;21.20;97.60
67273;DHT22;54190;49.770;9.250;2023-07-31T10:40:03;21.30;97.80
67273;DHT22;54190;49.770;9.250;2023-07-31T10:42:50;21.30;98.00
67273;DHT22;54190;49.770;9.250;2023-07-31T10:45:38;21.40;98.00
67273;DHT22;54190;49.770;9.250;2023-07-31T10:48:15;21.40;97.10
67273;DHT22;54190;49.770;9.250;2023-07-31T10:50:51;21.50;97.20
67273;DHT22;54190;49.770;9.250;2023-07-31T10:53:25;21.60;97.50
67273;DHT22;54190;49.770;9.250;2023-07-31T10:55:51;21.70;97.40
67273;DHT22;54190;49.770;9.250;2023-07-31T10:58:19;21.90;97.40
67273;DHT22;54190;49.770;9.250;2023-07-31T11:00:45;22.00;96.90
67273;DHT22;54190;49.770;9.250;2023-07-31T11:03:13;22.10;96.50
67273;DHT22;54190;49.770;9.250;2023-07-31T11:10:40;22.30;96.30
67273;DHT22;54190;49.770;9.250;2023-07-31T11:13:06;22.50;96.40
67273;DHT22;54190;49.770;9.250;2023-07-31T11:15:31;22.50;95.60
67273;DHT22;54190;49.770;9.250;2023-07-31T11:17:57;22.60;96.40
67273;DHT22;54190;49.770;9.250;2023-07-31T11:20:29;22.70;96.70
67273;DHT22;54190;49.770;9.250;2023-07-31T11:22:58;22.90;96.70
67273;DHT22;54190;49.770;9.250;2023-07-31T11:25:24;22.90;96.80
67273;DHT22;54190;49.770;9.250;2023-07-31T11:27:50;22.90;96.30
67273;DHT22;54190;49.770;9.250;2023-07-31T11:30:19;22.80;95.30
67273;DHT22;54190;49.770;9.250;2023-07-31T11:32:45;22.70;95.60
67273;DHT22;54190;49.770;9.250;2023-07-31T11:35:14;22.60;96.10
67273;DHT22;54190;49.770;9.250;2023-07-31T11:37:41;22.50;95.60
67273;DHT22;54190;49.770;9.250;2023-07-31T11:40:07;22.50;95.80
67273;DHT22;54190;49.770;9.250;2023-07-31T11:42:35;22.40;96.40
67273;DHT22;54190;49.770;9.250;2023-07-31T11:45:05;22.40;95.60
67273;DHT22;54190;49.770;9.250;2023-07-31T11:47:33;22.40;96.40
67273;DHT22;54190;49.770;9.250;2023-07-31T11:50:01;22.40;95.70
67273;DHT22;54190;49.770;9.250;2023-07-31T11:52:34;22.40;95.90
67273;DHT22;54190;49.770;9.250;2023-07-31T11:55:03;22.40;96.40
67273;DHT22;54190;49.770;9.250;2023-07-31T11:57:29;22.40;96.20
67273;DHT22;54190;49.770;9.250;2023-07-31T11:59:55;22.40;95.80
67273;DHT22;54190;49.770;9.250;2023-07-31T12:02:22;22.40;96.10
67273;DHT22;54190;49.770;9.250;2023-07-31T12:04:48;22.40;96.30
67273;DHT22;54190;49.770;9.250;2023-07-31T12:07:14;22.40;96.40
67273;DHT22;54190;49.770;9.250;2023-07-31T12:09:54;22.40;96.10
67273;DHT22;54190;49.770;9.250;2023-07-31T12:12:23;22.40;96.40
67273;DHT22;54190;49.770;9.250;2023-07-31T12:14:49;22.30;96.30
67273;DHT22;54190;49.770;9.250;2023-07-31T12:17:17;22.30;97.20
67273;DHT22;54190;49.770;9.250;2023-07-31T12:19:44;22.20;97.40
67273;DHT22;54190;49.770;9.250;2023-07-31T12:22:16;22.20;98.20
67273;DHT22;54190;49.770;9.250;2023-07-31T12:24:44;22.20;98.50
67273;DHT22;54190;49.770;9.250;2023-07-31T12:27:14;22.10;98.60
67273;DHT22;54190;49.770;9.250;2023-07-31T12:29:42;22.10;98.90
67273;DHT22;54190;49.770;9.250;2023-07-31T12:32:21;22.10;99.00
67273;DHT22;54190;49.770;9.250;2023-07-31T12:34:46;22.20;98.10
67273;DHT22;54190;49.770;9.250;2023-07-31T12:37:12;22.10;97.40
67273;DHT22;54190;49.770;9.250;2023-07-31T12:39:38;22.20;97.90
67273;DHT22;54190;49.770;9.250;2023-07-31T12:42:04;22.20;97.70
67273;DHT22;54190;49.770;9.250;2023-07-31T12:44:30;22.20;97.70
67273;DHT22;54190;49.770;9.250;2023-07-31T12:46:56;22.20;97.60
67273;DHT22;54190;49.770;9.250;2023-07-31T12:49:21;22.20;97.30
67273;DHT22;54190;49.770;9.250;2023-07-31T12:51:47;22.20;97.40
67273;DHT22;54190;49.770;9.250;2023-07-31T12:54:12;22.30;97.90
67273;DHT22;54190;49.770;9.250;2023-07-31T12:56:38;22.30;97.60
67273;DHT22;54190;49.770;9.250;2023-07-31T12:59:04;22.40;98.20
67273;DHT22;54190;49.770;9.250;2023-07-31T13:01:29;22.50;97.30
67273;DHT22;54190;49.770;9.250;2023-07-31T13:03:55;22.50;97.60
67273;DHT22;54190;49.770;9.250;2023-07-31T13:06:20;22.70;97.90
67273;DHT22;54190;49.770;9.250;2023-07-31T13:08:47;22.80;96.20
67273;DHT22;54190;49.770;9.250;2023-07-31T13:11:12;22.80;96.00
67273;DHT22;54190;49.770;9.250;2023-07-31T13:13:38;22.80;96.40
67273;DHT22;54190;49.770;9.250;2023-07-31T13:16:04;22.80;96.50
67273;DHT22;54190;49.770;9.250;2023-07-31T13:18:29;22.80;95.90
67273;DHT22;54190;49.770;9.250;2023-07-31T13:20:55;22.80;96.30
67273;DHT22;54190;49.770;9.250;2023-07-31T13:23:21;22.70;95.80
67273;DHT22;54190;49.770;9.250;2023-07-31T13:25:47;22.80;95.90
67273;DHT22;54190;49.770;9.250;2023-07-31T13:28:13;22.90;95.60
67273;DHT22;54190;49.770;9.250;2023-07-31T13:30:38;22.90;95.70
67273;DHT22;54190;49.770;9.250;2023-07-31T13:33:04;22.80;95.30
67273;DHT22;54190;49.770;9.250;2023-07-31T13:35:29;22.80;95.90
67273;DHT22;54190;49.770;9.250;2023-07-31T13:37:57;22.80;95.80
67273;DHT22;54190;49.770;9.250;2023-07-31T13:40:22;22.80;95.60
67273;DHT22;54190;49.770;9.250;2023-07-31T13:42:48;22.80;96.10
67273;DHT22;54190;49.770;9.250;2023-07-31T13:45:14;22.80;95.90
67273;DHT22;54190;49.770;9.250;2023-07-31T13:47:40;22.80;96.10
67273;DHT22;54190;49.770;9.250;2023-07-31T13:50:06;22.80;96.00
67273;DHT22;54190;49.770;9.250;2023-07-31T13:52:31;22.80;95.40
67273;DHT22;54190;49.770;9.250;2023-07-31T13:54:57;22.80;95.70
67273;DHT22;54190;49.770;9.250;2023-07-31T13:57:23;22.80;95.60
67273;DHT22;54190;49.770;9.250;2023-07-31T13:59:49;22.80;95.50
67273;DHT22;54190;49.770;9.250;2023-07-31T14:02:14;22.80;95.80
67273;DHT22;54190;49.770;9.250;2023-07-31T14:04:40;22.80;95.90
67273;DHT22;54190;49.770;9.250;2023-07-31T14:07:06;22.80;95.80
67273;DHT22;54190;49.770;9.250;2023-07-31T14:09:32;22.80;95.70
67273;DHT22;54190;49.770;9.250;2023-07-31T14:11:58;22.80;95.80
67273;DHT22;54190;49.770;9.250;2023-07-31T14:14:23;22.80;96.00
67273;DHT22;54190;49.770;9.250;2023-07-31T14:16:49;22.80;96.30
67273;DHT22;54190;49.770;9.250;2023-07-31T14:19:14;22.80;96.10
67273;DHT22;54190;49.770;9.250;2023-07-31T14:21:40;22.80;96.80
67273;DHT22;54190;49.770;9.250;2023-07-31T14:24:06;22.80;96.20
67273;DHT22;54190;49.770;9.250;2023-07-31T14:26:31;22.80;95.50
67273;DHT22;54190;49.770;9.250;2023-07-31T14:28:57;22.80;96.10
67273;DHT22;54190;49.770;9.250;2023-07-31T14:31:23;22.80;96.10
67273;DHT22;54190;49.770;9.250;2023-07-31T14:33:49;22.80;96.50
67273;DHT22;54190;49.770;9.250;2023-07-31T14:36:15;22.90;96.50
67273;DHT22;54190;49.770;9.250;2023-07-31T14:38:41;22.90;95.90
67273;DHT22;54190;49.770;9.250;2023-07-31T14:41:06;22.90;95.50
67273;DHT22;54190;49.770;9.250;2023-07-31T14:43:32;22.90;95.80
67273;DHT22;54190;49.770;9.250;2023-07-31T14:45:58;22.80;95.70
67273;DHT22;54190;49.770;9.250;2023-07-31T14:48:26;22.80;95.60
67273;DHT22;54190;49.770;9.250;2023-07-31T14:50:52;22.70;95.90
67273;DHT22;54190;49.770;9.250;2023-07-31T14:53:18;22.60;96.10
67273;DHT22;54190;49.770;9.250;2023-07-31T14:55:43;22.70;96.20
67273;DHT22;54190;49.770;9.250;2023-07-31T14:58:09;22.70;96.00
67273;DHT22;54190;49.770;9.250;2023-07-31T15:00:36;22.70;96.40
67273;DHT22;54190;49.770;9.250;2023-07-31T15:03:02;22.70;96.40
67273;DHT22;54190;49.770;9.250;2023-07-31T15:05:28;22.70;96.30
67273;DHT22;54190;49.770;9.250;2023-07-31T15:07:54;22.70;96.50
67273;DHT22;54190;49.770;9.250;2023-07-31T15:10:19;22.60;96.10
67273;DHT22;54190;49.770;9.250;2023-07-31T15:12:45;22.60;96.40
67273;DHT22;54190;49.770;9.250;2023-07-31T15:15:11;22.50;96.50
67273;DHT22;54190;49.770;9.250;2023-07-31T15:17:37;22.50;96.80
67273;DHT22;54190;49.770;9.250;2023-07-31T15:20:03;22.50;96.50
67273;DHT22;54190;49.770;9.250;2023-07-31T15:22:29;22.40;96.70
67273;DHT22;54190;49.770;9.250;2023-07-31T15:24:56;22.40;96.80
67273;DHT22;54190;49.770;9.250;2023-07-31T15:27:22;22.40;96.80
67273;DHT22;54190;49.770;9.250;2023-07-31T15:29:49;22.40;96.80
67273;DHT22;54190;49.770;9.250;2023-07-31T15:32:17;22.40;97.10
67273;DHT22;54190;49.770;9.250;2023-07-31T15:34:43;22.30;96.90
67273;DHT22;54190;49.770;9.250;2023-07-31T15:37:09;22.30;96.90
67273;DHT22;54190;49.770;9.250;2023-07-31T15:39:34;22.40;97.00
67273;DHT22;54190;49.770;9.250;2023-07-31T15:42:00;22.30;96.90
67273;DHT22;54190;49.770;9.250;2023-07-31T15:44:26;22.30;97.30